Florissant, Colorado
Current Conditions -  °F | °C
As of 5:15 PM on Wednesday 26 Nov 2014 (Local Time) from K4BM Reporting Station
Scattered Clouds Scattered Clouds  
Wind Chill: 30°   Ceiling: Unl
Heat Index: 30°   Visibility: 10mi
Dew Point: 16°   Wind: 0mph
Humidity: 55%   Direction: NA
Pressure: 30.39"   Gusts: NA
Location:  38.95°N, 105.29°W
Report Text: K4BM 270015Z AUTO 00000KT 10SM SCT050 SCT060 M01/M09 A3039 RMK AO2
Loading
Personal Weather Stations






























Interactive Weather Map New forecast layout! Learn more

10-Day Weather Forecast

Advertisements
Track Severe Weather on mobile